Time;durP1;ratioP1;P1;durP2;ratioP2;P2;SDS_P1;SDS_P2;PMS_P1;PMS_P2;Temp;Humidity;BMP_temperature;BMP_pressure;BME280_temperature;BME280_humidity;BME280_pressure;Samples;Min_cycle;Max_cycle;Signal;HPM_P1;HPM_P2
2021/12/09 00:01:21;;;;;;;27.33;14.30;;;;;;;2.72;100.00;99213.25;21030982;28;20048;-75
2021/12/09 00:11:23;;;;;;;30.50;15.05;;;;;;;2.54;100.00;99209.03;21032828;28;20139;-77
2021/12/09 00:21:24;;;;;;;39.10;18.50;;;;;;;2.47;100.00;99209.88;21027866;28;20040;-77
2021/12/09 00:31:26;;;;;;;33.95;17.30;;;;;;;2.43;100.00;99213.31;20987240;28;20135;-77
2021/12/09 00:41:28;;;;;;;25.88;15.65;;;;;;;2.37;100.00;99215.94;21010330;28;20078;-77
2021/12/09 00:51:30;;;;;;;36.33;16.88;;;;;;;2.30;100.00;99236.63;21029686;28;20385;-77
2021/12/09 01:01:31;;;;;;;29.10;13.90;;;;;;;2.31;100.00;99235.75;21024644;28;20056;-77
2021/12/09 01:11:33;;;;;;;22.60;12.00;;;;;;;2.15;100.00;99249.50;21027527;28;20090;-76
2021/12/09 01:21:35;;;;;;;26.73;11.95;;;;;;;2.02;100.00;99260.72;21024109;28;20512;-77
2021/12/09 01:31:38;;;;;;;25.80;11.23;;;;;;;1.97;100.00;99265.88;21026105;28;20048;-77
2021/12/09 01:41:40;;;;;;;24.08;10.52;;;;;;;1.82;100.00;99265.88;21024183;28;20416;-77
2021/12/09 01:51:41;;;;;;;20.00;8.93;;;;;;;1.78;100.00;99284.78;21024011;28;20113;-74
2021/12/09 02:01:43;;;;;;;21.88;8.40;;;;;;;1.65;100.00;99294.22;21021304;28;20053;-75
2021/12/09 02:11:46;;;;;;;22.70;8.68;;;;;;;1.57;100.00;99289.88;21023291;28;20044;-75
2021/12/09 02:21:48;;;;;;;16.35;7.35;;;;;;;1.42;100.00;99286.41;21021632;28;20052;-75
2021/12/09 02:31:56;;;;;;;19.17;7.53;;;;;;;1.34;100.00;99271.75;21020795;28;20376;-74
2021/12/09 02:41:58;;;;;;;19.60;7.50;;;;;;;1.21;100.00;99296.66;21022636;28;20077;-74
2021/12/09 02:52:01;;;;;;;19.20;6.95;;;;;;;1.08;100.00;99321.50;21019202;28;20117;-74
2021/12/09 03:02:05;;;;;;;16.85;6.97;;;;;;;0.99;100.00;99327.47;21021507;28;20101;-75
2021/12/09 03:12:12;;;;;;;16.13;7.37;;;;;;;0.94;100.00;99344.63;21031939;28;20402;-75
2021/12/09 03:22:14;;;;;;;24.08;9.82;;;;;;;0.95;100.00;99366.97;21035775;28;20105;-75
2021/12/09 03:32:19;;;;;;;25.13;12.25;;;;;;;1.19;100.00;99355.94;21032519;28;20041;-77
2021/12/09 03:42:25;;;;;;;19.58;10.95;;;;;;;1.25;100.00;99366.28;21033241;28;20044;-77
2021/12/09 03:52:28;;;;;;;21.15;9.95;;;;;;;1.19;100.00;99376.56;21032922;28;20059;-75
2021/12/09 04:02:30;;;;;;;23.83;9.63;;;;;;;1.07;100.00;99376.50;21029690;28;20513;-75
2021/12/09 04:12:32;;;;;;;23.58;9.77;;;;;;;0.97;100.00;99374.72;21032120;28;20404;-76
2021/12/09 04:22:34;;;;;;;22.73;10.25;;;;;;;0.99;100.00;99373.00;21028225;28;20044;-77
2021/12/09 04:32:36;;;;;;;25.40;8.75;;;;;;;0.85;100.00;99374.63;21033758;28;20500;-76
2021/12/09 04:42:38;;;;;;;21.60;9.27;;;;;;;0.74;100.00;99385.72;21027018;28;20043;-76
2021/12/09 04:52:40;;;;;;;21.42;9.65;;;;;;;0.65;100.00;99387.38;21024943;28;20477;-75
2021/12/09 05:13:03;;;;;;;20.73;9.45;;;;;;;0.49;100.00;99410.44;21160984;22;20184;-77
2021/12/09 05:23:05;;;;;;;31.67;11.02;;;;;;;0.71;100.00;99414.03;21044971;28;20481;-77
2021/12/09 05:33:07;;;;;;;22.45;10.40;;;;;;;1.09;100.00;99426.34;21023959;28;20112;-76
2021/12/09 05:43:08;;;;;;;23.55;11.20;;;;;;;1.32;100.00;99420.47;21024274;28;20060;-77
2021/12/09 05:53:10;;;;;;;25.00;10.25;;;;;;;1.39;100.00;99429.94;21028012;28;20093;-80
2021/12/09 06:03:12;;;;;;;21.60;10.40;;;;;;;1.43;100.00;99442.88;20982109;28;20344;-77
2021/12/09 06:13:15;;;;;;;24.02;10.45;;;;;;;1.49;100.00;99460.13;21009641;28;20131;-77
2021/12/09 06:23:18;;;;;;;20.30;10.80;;;;;;;1.54;100.00;99479.94;21025078;28;20048;-77
2021/12/09 06:33:19;;;;;;;21.55;10.63;;;;;;;1.63;100.00;99492.03;21020331;28;20113;-77
2021/12/09 06:43:22;;;;;;;24.05;10.50;;;;;;;1.64;100.00;99496.31;21031650;28;20466;-77
2021/12/09 06:53:23;;;;;;;26.90;12.63;;;;;;;1.60;100.00;99497.16;21037707;28;20062;-78
2021/12/09 07:03:25;;;;;;;29.25;13.00;;;;;;;1.58;100.00;99498.84;21036993;28;20040;-78
2021/12/09 07:13:26;;;;;;;28.42;13.23;;;;;;;1.63;100.00;99509.19;21035063;28;20052;-78
2021/12/09 07:23:28;;;;;;;30.30;13.65;;;;;;;1.64;100.00;99504.06;21036118;28;20513;-77
2021/12/09 07:33:29;;;;;;;24.10;12.70;;;;;;;1.68;100.00;99505.81;21034304;28;20579;-78
2021/12/09 07:43:31;;;;;;;24.63;11.98;;;;;;;1.67;100.00;99501.47;21034062;28;20434;-77
2021/12/09 07:53:32;;;;;;;32.75;14.07;;;;;;;1.67;100.00;99508.38;21045141;28;20078;-78
2021/12/09 08:03:34;;;;;;;36.97;15.95;;;;;;;1.81;100.00;99517.03;21034933;28;20074;-76
2021/12/09 08:13:36;;;;;;;33.53;15.23;;;;;;;1.88;100.00;99510.22;21059722;28;20121;-77
2021/12/09 08:23:37;;;;;;;29.30;13.13;;;;;;;1.88;100.00;99528.28;21060932;28;20101;-76
2021/12/09 08:33:38;;;;;;;24.85;12.68;;;;;;;1.90;100.00;99555.81;21059073;28;20105;-77
2021/12/09 08:44:00;;;;;;;26.83;12.65;;;;;;;2.08;100.00;99578.28;21061301;28;20134;-76
2021/12/09 08:54:02;;;;;;;24.77;11.32;;;;;;;2.14;100.00;99580.91;21058788;28;20048;-76
2021/12/09 09:04:04;;;;;;;25.23;11.65;;;;;;;2.33;100.00;99583.56;21054021;28;20166;-75
2021/12/09 09:14:05;;;;;;;24.33;12.40;;;;;;;2.48;100.00;99599.13;21022527;28;20055;-74
2021/12/09 09:24:07;;;;;;;23.85;11.32;;;;;;;2.54;100.00;99592.28;21018028;28;20051;-75
2021/12/09 09:34:11;;;;;;;24.30;10.68;;;;;;;2.78;100.00;99600.97;21019896;28;20040;-76
2021/12/09 09:44:18;;;;;;;22.08;10.93;;;;;;;2.89;100.00;99586.34;21016411;28;20041;-75
2021/12/09 09:54:20;;;;;;;20.02;9.38;;;;;;;3.21;100.00;99617.44;21018176;28;20056;-76
2021/12/09 10:04:33;;;;;;;19.27;8.38;;;;;;;3.11;98.65;99613.09;21014229;28;20447;-76
2021/12/09 10:14:36;;;;;;;16.13;7.50;;;;;;;3.42;97.87;99608.84;21018159;28;20056;-74
2021/12/09 10:24:41;;;;;;;22.77;8.60;;;;;;;3.63;97.45;99602.78;21029854;28;20057;-74
2021/12/09 10:34:49;;;;;;;18.83;7.50;;;;;;;3.75;97.47;99600.19;21032580;28;20052;-76
2021/12/09 10:45:04;;;;;;;16.73;7.15;;;;;;;3.70;95.70;99606.25;21032369;28;20044;-76
2021/12/09 10:55:16;;;;;;;15.27;6.65;;;;;;;3.73;94.80;99601.91;21030078;28;20044;-77
2021/12/09 11:05:17;;;;;;;17.67;6.32;;;;;;;4.02;94.12;99586.31;21030710;28;20052;-76
2021/12/09 11:15:21;;;;;;;38.80;12.57;;;;;;;4.11;93.22;99582.84;21028073;28;20048;-78
2021/12/09 11:25:34;;;;;;;18.33;8.07;;;;;;;4.22;94.65;99594.06;21019854;28;20045;-77
2021/12/09 11:35:40;;;;;;;21.35;8.32;;;;;;;4.29;94.25;99592.31;21027089;28;20056;-77
2021/12/09 11:45:48;;;;;;;18.75;7.57;;;;;;;4.10;95.68;99594.09;21025387;28;20454;-76
2021/12/09 11:56:04;;;;;;;18.23;7.75;;;;;;;4.01;95.49;99581.16;21027183;28;20117;-77
2021/12/09 12:17:37;;;;;;;23.33;6.20;;;;;;;4.47;93.61;99566.31;21017924;28;20059;-76
2021/12/09 12:28:26;;;;;;;17.60;5.82;;;;;;;4.48;92.11;99564.59;21019019;28;20281;-77
2021/12/09 12:58:33;;;;;;;14.02;4.93;;;;;;;4.49;91.28;99535.19;21016651;28;20105;-74
2021/12/09 13:09:06;;;;;;;16.42;4.55;;;;;;;4.44;90.90;99531.78;21018070;28;20671;-74
2021/12/09 13:19:12;;;;;;;15.68;5.40;;;;;;;4.35;90.07;99543.91;21019224;28;20048;-75
2021/12/09 13:29:35;;;;;;;19.48;5.10;;;;;;;4.50;87.78;99519.63;21018466;28;20424;-75
2021/12/09 14:00:33;;;;;;;15.20;3.42;;;;;;;4.58;85.51;99520.47;21015778;28;20055;-74
2021/12/09 14:10:40;;;;;;;14.18;3.30;;;;;;;4.64;86.37;99510.03;21006000;28;20052;-74
2021/12/09 14:20:42;;;;;;;15.38;2.75;;;;;;;4.70;86.62;99516.94;21016216;28;20057;-73
2021/12/09 14:30:47;;;;;;;11.23;2.95;;;;;;;4.55;88.14;99530.88;21013659;28;20074;-74
2021/12/09 14:40:56;;;;;;;16.15;3.22;;;;;;;4.49;87.63;99535.19;21016050;28;20105;-76
2021/12/09 14:51:12;;;;;;;13.15;3.30;;;;;;;4.41;87.05;99522.28;21012902;28;20075;-75
2021/12/09 15:01:18;;;;;;;10.45;2.72;;;;;;;4.43;88.04;99523.13;21018390;28;20056;-74
2021/12/09 15:11:20;;;;;;;10.45;2.42;;;;;;;4.38;88.24;99530.94;21034302;28;20822;-75
2021/12/09 15:21:26;;;;;;;12.45;3.08;;;;;;;4.38;90.48;99523.16;21025779;28;20082;-75
2021/12/09 15:31:28;;;;;;;14.68;2.95;;;;;;;4.41;89.51;99519.69;21023937;28;20044;-75
2021/12/09 15:41:35;;;;;;;11.98;2.97;;;;;;;4.37;89.37;99521.44;21027445;28;20048;-73
2021/12/09 15:51:39;;;;;;;14.52;4.45;;;;;;;4.33;90.26;99514.53;21022922;28;20102;-74
2021/12/09 16:01:43;;;;;;;11.93;3.43;;;;;;;4.31;89.90;99520.59;21022870;28;20048;-77
2021/12/09 16:11:46;;;;;;;14.23;3.90;;;;;;;4.28;89.99;99531.84;21025289;28;20135;-75
2021/12/09 16:22:18;;;;;;;12.93;5.57;;;;;;;4.21;89.98;99530.13;21022720;28;20666;-74
2021/12/09 16:32:19;;;;;;;15.88;5.03;;;;;;;4.18;90.44;99530.16;21021875;28;20516;-77
2021/12/09 16:42:20;;;;;;;15.52;4.18;;;;;;;4.20;90.77;99537.91;21042022;28;20044;-74
2021/12/09 16:52:22;;;;;;;16.65;5.60;;;;;;;4.25;90.75;99546.53;21018736;28;20102;-74
2021/12/09 17:02:25;;;;;;;15.68;4.53;;;;;;;4.21;89.52;99530.13;21017296;28;20118;-75
2021/12/09 17:12:27;;;;;;;16.00;4.93;;;;;;;4.22;90.45;99542.25;21019484;28;20144;-74
2021/12/09 17:22:36;;;;;;;14.77;4.32;;;;;;;4.18;91.54;99545.72;20973969;28;20056;-75
2021/12/09 17:32:40;;;;;;;11.88;3.15;;;;;;;4.21;91.55;99540.50;21004707;28;20040;-75
2021/12/09 17:42:41;;;;;;;11.50;3.38;;;;;;;4.14;93.27;99533.63;21016137;28;20098;-75
2021/12/09 17:52:50;;;;;;;10.35;3.22;;;;;;;4.14;94.13;99533.63;21013314;28;20059;-75
2021/12/09 18:02:52;;;;;;;8.98;2.80;;;;;;;4.06;95.50;99536.22;21016643;28;20101;-76
2021/12/09 18:12:54;;;;;;;13.65;3.25;;;;;;;4.04;96.20;99547.47;21020307;28;20485;-75
2021/12/09 18:22:56;;;;;;;16.17;3.97;;;;;;;4.00;96.97;99538.00;21011323;28;20172;-75
2021/12/09 18:32:58;;;;;;;10.65;2.72;;;;;;;3.85;98.21;99539.75;21012027;28;20049;-74
2021/12/09 18:43:00;;;;;;;11.65;3.63;;;;;;;3.82;98.50;99550.09;21026886;28;20067;-74
2021/12/09 18:53:01;;;;;;;8.23;3.17;;;;;;;3.79;99.58;99551.88;21030417;28;20113;-73
2021/12/09 19:03:05;;;;;;;12.63;3.75;;;;;;;3.74;100.00;99538.94;20985553;28;20048;-74
2021/12/09 19:13:08;;;;;;;19.63;5.03;;;;;;;3.75;100.00;99538.06;21012720;28;20048;-74
2021/12/09 19:23:10;;;;;;;11.77;4.65;;;;;;;3.76;100.00;99539.78;21024627;28;20095;-74
2021/12/09 19:33:11;;;;;;;18.92;8.05;;;;;;;3.78;100.00;99535.44;21026349;28;20047;-75
2021/12/09 19:43:13;;;;;;;13.95;4.72;;;;;;;3.65;100.00;99538.94;21024762;28;20425;-74
2021/12/09 19:53:15;;;;;;;12.82;3.95;;;;;;;3.67;100.00;99526.00;21022794;28;20056;-76
2021/12/09 20:03:19;;;;;;;9.00;3.80;;;;;;;3.69;100.00;99522.56;21022132;28;20044;-75
2021/12/09 20:13:20;;;;;;;13.50;5.35;;;;;;;3.71;100.00;99512.19;21023470;28;20044;-75
2021/12/09 20:23:22;;;;;;;14.15;5.70;;;;;;;3.70;100.00;99506.16;21020610;28;20048;-75
2021/12/09 20:33:25;;;;;;;16.92;4.75;;;;;;;3.70;99.88;99506.16;21022157;28;20048;-74
2021/12/09 20:43:27;;;;;;;14.52;4.43;;;;;;;3.60;100.00;99494.09;21019677;28;20052;-74
2021/12/09 20:53:29;;;;;;;13.20;4.82;;;;;;;3.51;100.00;99478.56;21021059;28;20126;-75
2021/12/09 21:03:31;;;;;;;10.55;5.00;;;;;;;3.53;100.00;99469.06;21016509;28;20586;-75
2021/12/09 21:13:36;;;;;;;13.00;4.75;;;;;;;3.47;100.00;99471.69;21020230;28;20079;-75
2021/12/09 21:23:39;;;;;;;12.15;3.88;;;;;;;3.56;99.96;99474.25;21019910;28;20466;-73
2021/12/09 21:34:02;;;;;;;15.07;4.65;;;;;;;3.55;99.51;99454.41;20977018;28;20528;-76
2021/12/09 21:44:03;;;;;;;16.85;4.88;;;;;;;3.57;98.27;99437.16;21023269;28;20101;-75
2021/12/09 21:54:05;;;;;;;14.48;4.50;;;;;;;3.57;98.27;99427.66;21051748;28;20047;-74
2021/12/09 22:04:07;;;;;;;12.73;4.68;;;;;;;3.57;98.19;99406.94;21045677;28;20635;-74
2021/12/09 22:14:09;;;;;;;15.80;6.43;;;;;;;3.52;97.11;99376.78;21009237;28;20421;-74
2021/12/09 22:24:10;;;;;;;13.30;4.03;;;;;;;3.68;96.70;99370.66;21057798;28;20048;-75
2021/12/09 22:34:13;;;;;;;12.90;3.92;;;;;;;3.68;96.23;99357.72;21028327;28;20048;-75
2021/12/09 22:44:15;;;;;;;10.68;3.50;;;;;;;3.64;96.29;99329.25;21030230;28;20064;-75
2021/12/09 22:54:19;;;;;;;20.30;4.10;;;;;;;3.63;96.47;99306.84;21032048;28;20098;-75
2021/12/09 23:04:24;;;;;;;9.00;2.97;;;;;;;3.49;97.40;99281.03;21032581;28;20040;-76
2021/12/09 23:14:41;;;;;;;12.98;2.92;;;;;;;3.41;96.42;99260.38;21133948;22;20442;-75
2021/12/09 23:24:43;;;;;;;12.68;3.40;;;;;;;3.09;95.80;99229.50;21033457;28;20048;-76
2021/12/09 23:34:46;;;;;;;11.13;3.70;;;;;;;2.72;96.73;99206.34;20991974;28;20432;-74
2021/12/09 23:44:47;;;;;;;15.65;4.38;;;;;;;2.57;96.03;99176.25;21023331;28;20044;-75
2021/12/09 23:54:49;;;;;;;12.98;3.67;;;;;;;2.26;97.36;99165.16;21030776;28;20098;-74
